RJTE(METAR)
12/11 17:17
RJTE 110817Z 04010KT 9999 -RA FEW008 BKN012 BKN020 08/04 Q1025
RMK 2ST008 5CU012 7SC020 A3029=
戻る
トップページへ戻る
IMOC Co,.Ltd.